sensor_id;sensor_type;location;lat;lon;timestamp;temperature;humidity
2723;DHT22;1369;53.216;10.396;2023-12-07T00:01:06;2.10;99.90
2723;DHT22;1369;53.216;10.396;2023-12-07T00:03:32;2.10;99.90
2723;DHT22;1369;53.216;10.396;2023-12-07T00:05:57;2.00;99.90
2723;DHT22;1369;53.216;10.396;2023-12-07T00:08:23;2.00;99.90
2723;DHT22;1369;53.216;10.396;2023-12-07T00:10:48;2.00;99.90
2723;DHT22;1369;53.216;10.396;2023-12-07T00:13:14;2.10;99.90
2723;DHT22;1369;53.216;10.396;2023-12-07T00:15:40;2.00;99.90
2723;DHT22;1369;53.216;10.396;2023-12-07T00:18:06;2.10;99.90
2723;DHT22;1369;53.216;10.396;2023-12-07T00:20:31;2.10;99.90
2723;DHT22;1369;53.216;10.396;2023-12-07T00:22:57;2.10;99.90
2723;DHT22;1369;53.216;10.396;2023-12-07T00:25:23;2.10;99.90
2723;DHT22;1369;53.216;10.396;2023-12-07T00:27:49;2.10;99.90
2723;DHT22;1369;53.216;10.396;2023-12-07T00:30:15;2.10;99.90
2723;DHT22;1369;53.216;10.396;2023-12-07T00:32:41;2.10;99.90
2723;DHT22;1369;53.216;10.396;2023-12-07T00:35:12;2.10;99.90
2723;DHT22;1369;53.216;10.396;2023-12-07T00:37:39;2.10;99.90
2723;DHT22;1369;53.216;10.396;2023-12-07T00:40:05;2.10;99.90
2723;DHT22;1369;53.216;10.396;2023-12-07T00:42:31;2.00;99.90
2723;DHT22;1369;53.216;10.396;2023-12-07T00:44:56;2.10;99.90
2723;DHT22;1369;53.216;10.396;2023-12-07T00:47:22;2.10;99.90
2723;DHT22;1369;53.216;10.396;2023-12-07T00:49:48;2.10;99.90
2723;DHT22;1369;53.216;10.396;2023-12-07T00:52:14;2.10;99.90
2723;DHT22;1369;53.216;10.396;2023-12-07T00:54:40;2.10;99.90
2723;DHT22;1369;53.216;10.396;2023-12-07T00:57:06;2.10;99.90
2723;DHT22;1369;53.216;10.396;2023-12-07T00:59:32;2.10;99.90
2723;DHT22;1369;53.216;10.396;2023-12-07T01:02:05;2.10;99.90
2723;DHT22;1369;53.216;10.396;2023-12-07T01:04:32;2.10;99.90
2723;DHT22;1369;53.216;10.396;2023-12-07T01:06:58;2.10;99.90
2723;DHT22;1369;53.216;10.396;2023-12-07T01:09:29;2.10;99.90
2723;DHT22;1369;53.216;10.396;2023-12-07T01:11:55;2.10;99.90
2723;DHT22;1369;53.216;10.396;2023-12-07T01:14:21;2.10;99.90
2723;DHT22;1369;53.216;10.396;2023-12-07T01:16:46;2.00;99.90
2723;DHT22;1369;53.216;10.396;2023-12-07T01:19:12;2.00;99.90
2723;DHT22;1369;53.216;10.396;2023-12-07T01:21:40;2.00;99.90
2723;DHT22;1369;53.216;10.396;2023-12-07T01:24:07;2.00;99.90
2723;DHT22;1369;53.216;10.396;2023-12-07T01:26:32;2.00;99.90
2723;DHT22;1369;53.216;10.396;2023-12-07T01:28:58;2.00;99.90
2723;DHT22;1369;53.216;10.396;2023-12-07T01:31:24;2.00;99.90
2723;DHT22;1369;53.216;10.396;2023-12-07T01:33:49;2.00;99.90
2723;DHT22;1369;53.216;10.396;2023-12-07T01:36:15;2.00;99.90
2723;DHT22;1369;53.216;10.396;2023-12-07T01:38:41;2.00;99.90
2723;DHT22;1369;53.216;10.396;2023-12-07T01:41:06;1.90;99.90
2723;DHT22;1369;53.216;10.396;2023-12-07T01:43:32;1.90;99.90
2723;DHT22;1369;53.216;10.396;2023-12-07T01:45:58;1.90;99.90
2723;DHT22;1369;53.216;10.396;2023-12-07T01:48:26;1.90;99.90
2723;DHT22;1369;53.216;10.396;2023-12-07T01:50:55;2.00;99.90
2723;DHT22;1369;53.216;10.396;2023-12-07T01:53:23;1.90;99.90
2723;DHT22;1369;53.216;10.396;2023-12-07T01:55:51;1.90;99.90
2723;DHT22;1369;53.216;10.396;2023-12-07T01:58:18;1.90;99.90
2723;DHT22;1369;53.216;10.396;2023-12-07T02:00:45;1.90;99.90
2723;DHT22;1369;53.216;10.396;2023-12-07T02:03:12;1.90;99.90
2723;DHT22;1369;53.216;10.396;2023-12-07T02:05:42;2.00;99.90
2723;DHT22;1369;53.216;10.396;2023-12-07T02:08:08;2.00;99.90
2723;DHT22;1369;53.216;10.396;2023-12-07T02:10:34;2.10;99.90
2723;DHT22;1369;53.216;10.396;2023-12-07T02:13:00;2.10;99.90
2723;DHT22;1369;53.216;10.396;2023-12-07T02:15:26;2.10;99.90
2723;DHT22;1369;53.216;10.396;2023-12-07T02:20:25;2.00;99.90
2723;DHT22;1369;53.216;10.396;2023-12-07T02:22:56;2.00;99.90
2723;DHT22;1369;53.216;10.396;2023-12-07T02:25:48;2.00;99.90
2723;DHT22;1369;53.216;10.396;2023-12-07T02:28:14;2.10;99.90
2723;DHT22;1369;53.216;10.396;2023-12-07T02:30:40;2.10;99.90
2723;DHT22;1369;53.216;10.396;2023-12-07T02:33:05;2.10;99.90
2723;DHT22;1369;53.216;10.396;2023-12-07T02:35:31;2.00;99.90
2723;DHT22;1369;53.216;10.396;2023-12-07T02:37:58;2.00;99.90
2723;DHT22;1369;53.216;10.396;2023-12-07T02:40:26;2.00;99.90
2723;DHT22;1369;53.216;10.396;2023-12-07T02:42:56;2.00;99.90
2723;DHT22;1369;53.216;10.396;2023-12-07T02:45:22;2.00;99.90
2723;DHT22;1369;53.216;10.396;2023-12-07T02:47:48;2.00;99.90
2723;DHT22;1369;53.216;10.396;2023-12-07T02:50:14;2.00;99.90
2723;DHT22;1369;53.216;10.396;2023-12-07T02:52:40;2.00;99.90
2723;DHT22;1369;53.216;10.396;2023-12-07T02:55:06;2.00;99.90
2723;DHT22;1369;53.216;10.396;2023-12-07T02:57:32;2.00;99.90
2723;DHT22;1369;53.216;10.396;2023-12-07T03:00:03;2.10;99.90
2723;DHT22;1369;53.216;10.396;2023-12-07T03:02:36;2.10;99.90
2723;DHT22;1369;53.216;10.396;2023-12-07T03:05:02;2.10;99.90
2723;DHT22;1369;53.216;10.396;2023-12-07T03:07:27;2.10;99.90
2723;DHT22;1369;53.216;10.396;2023-12-07T03:09:53;2.10;99.90
2723;DHT22;1369;53.216;10.396;2023-12-07T03:12:19;2.00;99.90
2723;DHT22;1369;53.216;10.396;2023-12-07T03:14:44;2.00;99.90
2723;DHT22;1369;53.216;10.396;2023-12-07T03:17:10;2.10;99.90
2723;DHT22;1369;53.216;10.396;2023-12-07T03:19:39;2.10;99.90
2723;DHT22;1369;53.216;10.396;2023-12-07T03:22:06;2.10;99.90
2723;DHT22;1369;53.216;10.396;2023-12-07T03:24:33;2.10;99.90
2723;DHT22;1369;53.216;10.396;2023-12-07T03:26:59;2.10;99.90
2723;DHT22;1369;53.216;10.396;2023-12-07T03:29:25;2.00;99.90
2723;DHT22;1369;53.216;10.396;2023-12-07T03:31:50;2.00;99.90
2723;DHT22;1369;53.216;10.396;2023-12-07T03:34:16;2.00;99.90
2723;DHT22;1369;53.216;10.396;2023-12-07T03:36:45;2.10;99.90
2723;DHT22;1369;53.216;10.396;2023-12-07T03:39:12;2.00;99.90
2723;DHT22;1369;53.216;10.396;2023-12-07T03:41:39;2.00;99.90
2723;DHT22;1369;53.216;10.396;2023-12-07T03:44:05;2.10;99.90
2723;DHT22;1369;53.216;10.396;2023-12-07T03:46:31;2.10;99.90
2723;DHT22;1369;53.216;10.396;2023-12-07T03:48:56;2.10;99.90
2723;DHT22;1369;53.216;10.396;2023-12-07T03:51:23;2.20;99.90
2723;DHT22;1369;53.216;10.396;2023-12-07T03:53:48;2.20;99.90
2723;DHT22;1369;53.216;10.396;2023-12-07T03:56:27;2.10;99.90
2723;DHT22;1369;53.216;10.396;2023-12-07T03:58:53;2.20;99.90
2723;DHT22;1369;53.216;10.396;2023-12-07T04:01:27;2.10;99.90
2723;DHT22;1369;53.216;10.396;2023-12-07T04:03:55;2.10;99.90
2723;DHT22;1369;53.216;10.396;2023-12-07T04:06:22;2.10;99.90
2723;DHT22;1369;53.216;10.396;2023-12-07T04:08:48;2.10;99.90
2723;DHT22;1369;53.216;10.396;2023-12-07T04:11:14;2.00;99.90
2723;DHT22;1369;53.216;10.396;2023-12-07T04:13:40;2.00;99.90
2723;DHT22;1369;53.216;10.396;2023-12-07T04:16:10;2.00;99.90
2723;DHT22;1369;53.216;10.396;2023-12-07T04:18:36;2.00;99.90
2723;DHT22;1369;53.216;10.396;2023-12-07T04:21:02;2.00;99.90
2723;DHT22;1369;53.216;10.396;2023-12-07T04:23:29;2.00;99.90
2723;DHT22;1369;53.216;10.396;2023-12-07T04:25:55;2.00;99.90
2723;DHT22;1369;53.216;10.396;2023-12-07T04:28:20;2.00;99.90
2723;DHT22;1369;53.216;10.396;2023-12-07T04:30:46;2.00;99.90
2723;DHT22;1369;53.216;10.396;2023-12-07T04:33:12;2.10;99.90
2723;DHT22;1369;53.216;10.396;2023-12-07T04:35:38;2.10;99.90
2723;DHT22;1369;53.216;10.396;2023-12-07T04:38:03;2.10;99.90
2723;DHT22;1369;53.216;10.396;2023-12-07T04:40:29;2.10;99.90
2723;DHT22;1369;53.216;10.396;2023-12-07T04:42:54;2.00;99.90
2723;DHT22;1369;53.216;10.396;2023-12-07T04:45:20;2.00;99.90
2723;DHT22;1369;53.216;10.396;2023-12-07T04:47:46;2.00;99.90
2723;DHT22;1369;53.216;10.396;2023-12-07T04:50:12;2.00;99.90
2723;DHT22;1369;53.216;10.396;2023-12-07T04:52:38;2.10;99.90
2723;DHT22;1369;53.216;10.396;2023-12-07T04:55:04;2.10;99.90
2723;DHT22;1369;53.216;10.396;2023-12-07T04:57:35;2.10;99.90
2723;DHT22;1369;53.216;10.396;2023-12-07T05:00:01;2.10;99.90
2723;DHT22;1369;53.216;10.396;2023-12-07T05:02:31;2.10;99.90
2723;DHT22;1369;53.216;10.396;2023-12-07T05:04:57;2.10;99.90
2723;DHT22;1369;53.216;10.396;2023-12-07T05:07:23;2.20;99.90
2723;DHT22;1369;53.216;10.396;2023-12-07T05:09:49;2.10;99.90
2723;DHT22;1369;53.216;10.396;2023-12-07T05:12:22;2.10;99.90
2723;DHT22;1369;53.216;10.396;2023-12-07T05:14:48;2.10;99.90
2723;DHT22;1369;53.216;10.396;2023-12-07T05:17:13;2.20;99.90
2723;DHT22;1369;53.216;10.396;2023-12-07T05:19:40;2.20;99.90
2723;DHT22;1369;53.216;10.396;2023-12-07T05:22:05;2.20;99.90
2723;DHT22;1369;53.216;10.396;2023-12-07T05:24:31;2.20;99.90
2723;DHT22;1369;53.216;10.396;2023-12-07T05:27:00;2.20;99.90
2723;DHT22;1369;53.216;10.396;2023-12-07T05:29:25;2.10;99.90
2723;DHT22;1369;53.216;10.396;2023-12-07T05:31:51;2.10;99.90
2723;DHT22;1369;53.216;10.396;2023-12-07T05:34:17;2.10;99.90
2723;DHT22;1369;53.216;10.396;2023-12-07T05:36:43;2.10;99.90
2723;DHT22;1369;53.216;10.396;2023-12-07T05:39:09;2.20;99.90
2723;DHT22;1369;53.216;10.396;2023-12-07T05:41:34;2.20;99.90
2723;DHT22;1369;53.216;10.396;2023-12-07T05:44:00;2.20;99.90
2723;DHT22;1369;53.216;10.396;2023-12-07T05:46:27;2.20;99.90
2723;DHT22;1369;53.216;10.396;2023-12-07T05:48:53;2.20;99.90
2723;DHT22;1369;53.216;10.396;2023-12-07T05:51:19;2.20;99.90
2723;DHT22;1369;53.216;10.396;2023-12-07T05:53:46;2.20;99.90
2723;DHT22;1369;53.216;10.396;2023-12-07T05:56:11;2.20;99.90
2723;DHT22;1369;53.216;10.396;2023-12-07T05:58:37;2.20;99.90
2723;DHT22;1369;53.216;10.396;2023-12-07T06:01:04;2.10;99.90
2723;DHT22;1369;53.216;10.396;2023-12-07T06:03:30;2.20;99.90
2723;DHT22;1369;53.216;10.396;2023-12-07T06:05:57;2.20;99.90
2723;DHT22;1369;53.216;10.396;2023-12-07T06:08:23;2.10;99.90
2723;DHT22;1369;53.216;10.396;2023-12-07T06:10:48;2.10;99.90
2723;DHT22;1369;53.216;10.396;2023-12-07T06:13:14;2.10;99.90
2723;DHT22;1369;53.216;10.396;2023-12-07T06:15:40;2.20;99.90
2723;DHT22;1369;53.216;10.396;2023-12-07T06:18:06;2.20;99.90
2723;DHT22;1369;53.216;10.396;2023-12-07T06:20:32;2.20;99.90
2723;DHT22;1369;53.216;10.396;2023-12-07T06:22:58;2.20;99.90
2723;DHT22;1369;53.216;10.396;2023-12-07T06:25:24;2.20;99.90
2723;DHT22;1369;53.216;10.396;2023-12-07T06:27:50;2.20;99.90
2723;DHT22;1369;53.216;10.396;2023-12-07T06:30:15;2.20;99.90
2723;DHT22;1369;53.216;10.396;2023-12-07T06:32:41;2.20;99.90
2723;DHT22;1369;53.216;10.396;2023-12-07T06:35:07;2.30;99.90
2723;DHT22;1369;53.216;10.396;2023-12-07T06:37:33;2.30;99.90
2723;DHT22;1369;53.216;10.396;2023-12-07T06:39:58;2.30;99.90
2723;DHT22;1369;53.216;10.396;2023-12-07T06:42:26;2.30;99.90
2723;DHT22;1369;53.216;10.396;2023-12-07T06:44:51;2.30;99.90
2723;DHT22;1369;53.216;10.396;2023-12-07T06:47:18;2.30;99.90
2723;DHT22;1369;53.216;10.396;2023-12-07T06:49:44;2.30;99.90
2723;DHT22;1369;53.216;10.396;2023-12-07T06:52:09;2.30;99.90
2723;DHT22;1369;53.216;10.396;2023-12-07T06:54:36;2.20;99.90
2723;DHT22;1369;53.216;10.396;2023-12-07T06:57:02;2.20;99.90
2723;DHT22;1369;53.216;10.396;2023-12-07T06:59:28;2.20;99.90
2723;DHT22;1369;53.216;10.396;2023-12-07T07:01:54;2.20;99.90
2723;DHT22;1369;53.216;10.396;2023-12-07T07:04:19;2.20;99.90
2723;DHT22;1369;53.216;10.396;2023-12-07T07:06:45;2.20;99.90
2723;DHT22;1369;53.216;10.396;2023-12-07T07:09:11;2.20;99.90
2723;DHT22;1369;53.216;10.396;2023-12-07T07:11:38;2.20;99.90
2723;DHT22;1369;53.216;10.396;2023-12-07T07:14:04;2.30;99.90
2723;DHT22;1369;53.216;10.396;2023-12-07T07:16:30;2.20;99.90
2723;DHT22;1369;53.216;10.396;2023-12-07T07:18:56;2.30;99.90
2723;DHT22;1369;53.216;10.396;2023-12-07T07:21:22;2.30;99.90
2723;DHT22;1369;53.216;10.396;2023-12-07T07:23:48;2.30;99.90
2723;DHT22;1369;53.216;10.396;2023-12-07T07:26:13;2.30;99.90
2723;DHT22;1369;53.216;10.396;2023-12-07T07:28:43;2.30;99.90
2723;DHT22;1369;53.216;10.396;2023-12-07T07:31:08;2.30;99.90
2723;DHT22;1369;53.216;10.396;2023-12-07T07:33:34;2.30;99.90
2723;DHT22;1369;53.216;10.396;2023-12-07T07:36:00;2.30;99.90
2723;DHT22;1369;53.216;10.396;2023-12-07T07:38:25;2.30;99.90
2723;DHT22;1369;53.216;10.396;2023-12-07T07:40:51;2.30;99.90
2723;DHT22;1369;53.216;10.396;2023-12-07T07:43:17;2.40;99.90
2723;DHT22;1369;53.216;10.396;2023-12-07T07:45:43;2.40;99.90
2723;DHT22;1369;53.216;10.396;2023-12-07T07:48:09;2.40;99.90
2723;DHT22;1369;53.216;10.396;2023-12-07T07:50:35;2.40;99.90
2723;DHT22;1369;53.216;10.396;2023-12-07T07:53:02;2.40;99.90
2723;DHT22;1369;53.216;10.396;2023-12-07T07:55:29;2.50;99.90
2723;DHT22;1369;53.216;10.396;2023-12-07T07:57:54;2.50;99.90
2723;DHT22;1369;53.216;10.396;2023-12-07T08:00:20;2.50;99.90
2723;DHT22;1369;53.216;10.396;2023-12-07T08:02:46;2.50;99.90
2723;DHT22;1369;53.216;10.396;2023-12-07T08:05:12;2.50;99.90
2723;DHT22;1369;53.216;10.396;2023-12-07T08:07:39;2.50;99.90
2723;DHT22;1369;53.216;10.396;2023-12-07T08:10:06;2.50;99.90
2723;DHT22;1369;53.216;10.396;2023-12-07T08:12:33;2.50;99.90
2723;DHT22;1369;53.216;10.396;2023-12-07T08:14:58;2.60;99.90
2723;DHT22;1369;53.216;10.396;2023-12-07T08:17:24;2.60;99.90
2723;DHT22;1369;53.216;10.396;2023-12-07T08:19:52;2.60;99.90
2723;DHT22;1369;53.216;10.396;2023-12-07T08:22:17;2.60;99.90
2723;DHT22;1369;53.216;10.396;2023-12-07T08:24:43;2.60;99.90
2723;DHT22;1369;53.216;10.396;2023-12-07T08:27:09;2.60;99.90
2723;DHT22;1369;53.216;10.396;2023-12-07T08:29:35;2.60;99.90
2723;DHT22;1369;53.216;10.396;2023-12-07T08:32:02;2.70;99.90
2723;DHT22;1369;53.216;10.396;2023-12-07T08:34:28;2.70;99.90
2723;DHT22;1369;53.216;10.396;2023-12-07T08:36:54;2.70;99.90
2723;DHT22;1369;53.216;10.396;2023-12-07T08:39:19;2.70;99.90
2723;DHT22;1369;53.216;10.396;2023-12-07T08:41:45;2.60;99.90
2723;DHT22;1369;53.216;10.396;2023-12-07T08:44:11;2.60;99.90
2723;DHT22;1369;53.216;10.396;2023-12-07T08:46:36;2.60;99.90
2723;DHT22;1369;53.216;10.396;2023-12-07T08:49:02;2.60;99.90
2723;DHT22;1369;53.216;10.396;2023-12-07T08:51:29;2.70;99.90
2723;DHT22;1369;53.216;10.396;2023-12-07T08:53:55;2.70;99.90
2723;DHT22;1369;53.216;10.396;2023-12-07T08:56:21;2.60;99.90
2723;DHT22;1369;53.216;10.396;2023-12-07T08:58:46;2.60;99.90
2723;DHT22;1369;53.216;10.396;2023-12-07T09:01:12;2.60;99.90
2723;DHT22;1369;53.216;10.396;2023-12-07T09:03:37;2.70;99.90
2723;DHT22;1369;53.216;10.396;2023-12-07T09:06:03;2.70;99.90
2723;DHT22;1369;53.216;10.396;2023-12-07T09:08:30;2.70;99.90
2723;DHT22;1369;53.216;10.396;2023-12-07T09:10:56;2.80;99.90
2723;DHT22;1369;53.216;10.396;2023-12-07T09:13:22;2.90;99.90
2723;DHT22;1369;53.216;10.396;2023-12-07T09:15:47;2.90;99.90
2723;DHT22;1369;53.216;10.396;2023-12-07T09:18:13;2.90;99.90
2723;DHT22;1369;53.216;10.396;2023-12-07T09:20:42;2.90;99.90
2723;DHT22;1369;53.216;10.396;2023-12-07T09:23:13;3.00;99.90
2723;DHT22;1369;53.216;10.396;2023-12-07T09:25:40;2.90;99.90
2723;DHT22;1369;53.216;10.396;2023-12-07T09:28:06;2.90;99.90
2723;DHT22;1369;53.216;10.396;2023-12-07T09:30:32;2.90;99.90
2723;DHT22;1369;53.216;10.396;2023-12-07T09:32:59;3.00;99.90
2723;DHT22;1369;53.216;10.396;2023-12-07T09:35:25;3.10;99.90
2723;DHT22;1369;53.216;10.396;2023-12-07T09:37:50;3.00;99.90
2723;DHT22;1369;53.216;10.396;2023-12-07T09:40:17;3.10;99.90
2723;DHT22;1369;53.216;10.396;2023-12-07T09:42:44;3.10;99.90
2723;DHT22;1369;53.216;10.396;2023-12-07T09:45:10;2.90;99.90
2723;DHT22;1369;53.216;10.396;2023-12-07T09:47:37;2.90;99.90
2723;DHT22;1369;53.216;10.396;2023-12-07T09:50:19;3.00;99.90
2723;DHT22;1369;53.216;10.396;2023-12-07T09:52:53;3.10;99.90
2723;DHT22;1369;53.216;10.396;2023-12-07T09:55:20;3.10;99.90
2723;DHT22;1369;53.216;10.396;2023-12-07T09:57:48;3.20;99.90
2723;DHT22;1369;53.216;10.396;2023-12-07T10:00:14;3.30;99.90
2723;DHT22;1369;53.216;10.396;2023-12-07T10:02:41;3.30;99.90
2723;DHT22;1369;53.216;10.396;2023-12-07T10:05:12;3.30;99.90
2723;DHT22;1369;53.216;10.396;2023-12-07T10:07:45;3.20;99.90
2723;DHT22;1369;53.216;10.396;2023-12-07T10:10:13;3.30;99.90
2723;DHT22;1369;53.216;10.396;2023-12-07T10:12:54;3.30;99.90
2723;DHT22;1369;53.216;10.396;2023-12-07T10:15:21;3.40;99.90
2723;DHT22;1369;53.216;10.396;2023-12-07T10:17:57;3.40;99.90
2723;DHT22;1369;53.216;10.396;2023-12-07T10:20:28;3.50;99.90
2723;DHT22;1369;53.216;10.396;2023-12-07T10:23:05;3.50;99.90
2723;DHT22;1369;53.216;10.396;2023-12-07T10:25:42;3.50;99.90
2723;DHT22;1369;53.216;10.396;2023-12-07T10:28:08;3.50;99.90
2723;DHT22;1369;53.216;10.396;2023-12-07T10:30:37;3.50;99.90
2723;DHT22;1369;53.216;10.396;2023-12-07T10:33:05;3.60;99.90
2723;DHT22;1369;53.216;10.396;2023-12-07T10:35:32;3.60;99.90
2723;DHT22;1369;53.216;10.396;2023-12-07T10:37:58;3.60;99.90
2723;DHT22;1369;53.216;10.396;2023-12-07T10:40:24;3.50;99.90
2723;DHT22;1369;53.216;10.396;2023-12-07T10:42:52;3.60;99.90
2723;DHT22;1369;53.216;10.396;2023-12-07T10:45:22;3.70;99.90
2723;DHT22;1369;53.216;10.396;2023-12-07T10:47:51;3.70;99.90
2723;DHT22;1369;53.216;10.396;2023-12-07T10:50:22;3.80;99.90
2723;DHT22;1369;53.216;10.396;2023-12-07T10:52:52;3.70;99.90
2723;DHT22;1369;53.216;10.396;2023-12-07T10:55:22;3.80;99.90
2723;DHT22;1369;53.216;10.396;2023-12-07T10:57:52;3.80;99.90
2723;DHT22;1369;53.216;10.396;2023-12-07T11:00:18;3.80;99.90
2723;DHT22;1369;53.216;10.396;2023-12-07T11:02:45;3.80;99.90
2723;DHT22;1369;53.216;10.396;2023-12-07T11:05:11;3.80;99.90
2723;DHT22;1369;53.216;10.396;2023-12-07T11:07:51;3.90;99.90
2723;DHT22;1369;53.216;10.396;2023-12-07T11:10:27;3.80;99.90
2723;DHT22;1369;53.216;10.396;2023-12-07T11:15:35;3.80;99.90
2723;DHT22;1369;53.216;10.396;2023-12-07T11:18:02;3.70;99.90
2723;DHT22;1369;53.216;10.396;2023-12-07T11:20:45;3.70;99.90
2723;DHT22;1369;53.216;10.396;2023-12-07T11:23:12;3.80;99.90
2723;DHT22;1369;53.216;10.396;2023-12-07T11:25:43;3.90;99.90
2723;DHT22;1369;53.216;10.396;2023-12-07T11:28:11;3.90;99.90
2723;DHT22;1369;53.216;10.396;2023-12-07T11:30:37;3.90;99.90
2723;DHT22;1369;53.216;10.396;2023-12-07T11:33:04;3.80;99.90
2723;DHT22;1369;53.216;10.396;2023-12-07T11:35:30;3.80;99.90
2723;DHT22;1369;53.216;10.396;2023-12-07T11:38:08;3.80;99.90
2723;DHT22;1369;53.216;10.396;2023-12-07T11:40:41;3.80;99.90
2723;DHT22;1369;53.216;10.396;2023-12-07T11:43:16;3.80;99.90
2723;DHT22;1369;53.216;10.396;2023-12-07T11:45:47;3.80;99.90
2723;DHT22;1369;53.216;10.396;2023-12-07T11:48:15;3.90;99.90
2723;DHT22;1369;53.216;10.396;2023-12-07T11:50:57;3.90;99.90
2723;DHT22;1369;53.216;10.396;2023-12-07T11:53:25;3.90;99.90
2723;DHT22;1369;53.216;10.396;2023-12-07T11:55:51;3.90;99.90
2723;DHT22;1369;53.216;10.396;2023-12-07T11:58:17;3.90;99.90
2723;DHT22;1369;53.216;10.396;2023-12-07T12:00:46;3.90;99.90
2723;DHT22;1369;53.216;10.396;2023-12-07T12:03:13;3.80;99.90
2723;DHT22;1369;53.216;10.396;2023-12-07T12:05:40;3.80;99.90
2723;DHT22;1369;53.216;10.396;2023-12-07T12:08:09;3.80;99.90
2723;DHT22;1369;53.216;10.396;2023-12-07T12:10:34;3.80;99.90
2723;DHT22;1369;53.216;10.396;2023-12-07T12:13:03;3.80;99.90
2723;DHT22;1369;53.216;10.396;2023-12-07T12:15:30;3.90;99.90
2723;DHT22;1369;53.216;10.396;2023-12-07T12:17:59;3.80;99.90
2723;DHT22;1369;53.216;10.396;2023-12-07T12:20:26;3.80;99.90
2723;DHT22;1369;53.216;10.396;2023-12-07T12:22:52;3.80;99.90
2723;DHT22;1369;53.216;10.396;2023-12-07T12:25:27;3.80;99.90
2723;DHT22;1369;53.216;10.396;2023-12-07T12:28:02;3.80;99.90
2723;DHT22;1369;53.216;10.396;2023-12-07T12:30:29;3.90;99.90
2723;DHT22;1369;53.216;10.396;2023-12-07T12:32:56;3.80;99.90
2723;DHT22;1369;53.216;10.396;2023-12-07T12:35:22;3.80;99.90
2723;DHT22;1369;53.216;10.396;2023-12-07T12:37:49;3.80;99.90
2723;DHT22;1369;53.216;10.396;2023-12-07T12:40:18;3.80;99.90
2723;DHT22;1369;53.216;10.396;2023-12-07T12:42:48;3.80;99.90
2723;DHT22;1369;53.216;10.396;2023-12-07T12:45:15;3.80;99.90
2723;DHT22;1369;53.216;10.396;2023-12-07T12:47:42;3.80;99.90
2723;DHT22;1369;53.216;10.396;2023-12-07T12:50:11;3.70;99.90
2723;DHT22;1369;53.216;10.396;2023-12-07T12:52:37;3.80;99.90
2723;DHT22;1369;53.216;10.396;2023-12-07T12:55:13;3.70;99.90
2723;DHT22;1369;53.216;10.396;2023-12-07T12:57:39;3.70;99.90
2723;DHT22;1369;53.216;10.396;2023-12-07T13:00:05;3.70;99.90
2723;DHT22;1369;53.216;10.396;2023-12-07T13:02:33;3.70;99.90
2723;DHT22;1369;53.216;10.396;2023-12-07T13:04:59;3.70;99.90
2723;DHT22;1369;53.216;10.396;2023-12-07T13:07:25;3.70;99.90
2723;DHT22;1369;53.216;10.396;2023-12-07T13:09:51;3.60;99.90
2723;DHT22;1369;53.216;10.396;2023-12-07T13:12:17;3.70;99.90
2723;DHT22;1369;53.216;10.396;2023-12-07T13:14:42;3.70;99.90
2723;DHT22;1369;53.216;10.396;2023-12-07T13:17:08;3.70;99.90
2723;DHT22;1369;53.216;10.396;2023-12-07T13:19:34;3.70;99.90
2723;DHT22;1369;53.216;10.396;2023-12-07T13:22:00;3.70;99.90
2723;DHT22;1369;53.216;10.396;2023-12-07T13:24:26;3.60;99.90
2723;DHT22;1369;53.216;10.396;2023-12-07T13:26:52;3.50;99.90
2723;DHT22;1369;53.216;10.396;2023-12-07T13:29:17;3.40;99.90
2723;DHT22;1369;53.216;10.396;2023-12-07T13:31:43;3.40;99.90
2723;DHT22;1369;53.216;10.396;2023-12-07T13:34:09;3.40;99.90
2723;DHT22;1369;53.216;10.396;2023-12-07T13:36:34;3.40;99.90
2723;DHT22;1369;53.216;10.396;2023-12-07T13:39:01;3.40;99.90
2723;DHT22;1369;53.216;10.396;2023-12-07T13:41:29;3.40;99.90
2723;DHT22;1369;53.216;10.396;2023-12-07T13:43:57;3.30;99.90
2723;DHT22;1369;53.216;10.396;2023-12-07T13:46:23;3.30;99.90
2723;DHT22;1369;53.216;10.396;2023-12-07T13:48:48;3.20;99.90
2723;DHT22;1369;53.216;10.396;2023-12-07T13:51:15;3.20;99.90
2723;DHT22;1369;53.216;10.396;2023-12-07T13:53:41;3.20;99.90
2723;DHT22;1369;53.216;10.396;2023-12-07T13:56:07;3.30;99.90
2723;DHT22;1369;53.216;10.396;2023-12-07T13:58:33;3.30;99.90
2723;DHT22;1369;53.216;10.396;2023-12-07T14:01:00;3.30;99.90
2723;DHT22;1369;53.216;10.396;2023-12-07T14:03:27;3.30;99.90
2723;DHT22;1369;53.216;10.396;2023-12-07T14:05:53;3.30;99.90
2723;DHT22;1369;53.216;10.396;2023-12-07T14:08:18;3.30;99.90
2723;DHT22;1369;53.216;10.396;2023-12-07T14:10:44;3.20;99.90
2723;DHT22;1369;53.216;10.396;2023-12-07T14:13:10;3.20;99.90
2723;DHT22;1369;53.216;10.396;2023-12-07T14:15:36;3.20;99.90
2723;DHT22;1369;53.216;10.396;2023-12-07T14:18:02;3.20;99.90
2723;DHT22;1369;53.216;10.396;2023-12-07T14:20:30;3.20;99.90
2723;DHT22;1369;53.216;10.396;2023-12-07T14:22:56;3.20;99.90
2723;DHT22;1369;53.216;10.396;2023-12-07T14:25:23;3.20;99.90
2723;DHT22;1369;53.216;10.396;2023-12-07T14:27:49;3.10;99.90
2723;DHT22;1369;53.216;10.396;2023-12-07T14:30:15;3.10;99.90
2723;DHT22;1369;53.216;10.396;2023-12-07T14:32:42;3.00;99.90
2723;DHT22;1369;53.216;10.396;2023-12-07T14:35:13;3.00;99.90
2723;DHT22;1369;53.216;10.396;2023-12-07T14:37:39;3.00;99.90
2723;DHT22;1369;53.216;10.396;2023-12-07T14:40:07;2.90;99.90
2723;DHT22;1369;53.216;10.396;2023-12-07T14:42:32;2.90;99.90
2723;DHT22;1369;53.216;10.396;2023-12-07T14:44:58;2.80;99.90
2723;DHT22;1369;53.216;10.396;2023-12-07T14:47:23;2.70;99.90
2723;DHT22;1369;53.216;10.396;2023-12-07T14:49:49;2.70;99.90
2723;DHT22;1369;53.216;10.396;2023-12-07T14:52:15;2.70;99.90
2723;DHT22;1369;53.216;10.396;2023-12-07T14:54:41;2.70;99.90
2723;DHT22;1369;53.216;10.396;2023-12-07T14:57:07;2.70;99.90
2723;DHT22;1369;53.216;10.396;2023-12-07T14:59:35;2.70;99.90
2723;DHT22;1369;53.216;10.396;2023-12-07T15:02:00;2.70;99.90
2723;DHT22;1369;53.216;10.396;2023-12-07T15:04:26;2.70;99.90
2723;DHT22;1369;53.216;10.396;2023-12-07T15:06:52;2.70;99.90
2723;DHT22;1369;53.216;10.396;2023-12-07T15:09:19;2.70;99.90
2723;DHT22;1369;53.216;10.396;2023-12-07T15:11:45;2.80;99.90
2723;DHT22;1369;53.216;10.396;2023-12-07T15:14:11;2.70;99.90
2723;DHT22;1369;53.216;10.396;2023-12-07T15:16:37;2.60;99.90
2723;DHT22;1369;53.216;10.396;2023-12-07T15:19:03;2.60;99.90
2723;DHT22;1369;53.216;10.396;2023-12-07T15:21:29;2.60;99.90
2723;DHT22;1369;53.216;10.396;2023-12-07T15:23:54;2.60;99.90
2723;DHT22;1369;53.216;10.396;2023-12-07T15:26:20;2.60;99.90
2723;DHT22;1369;53.216;10.396;2023-12-07T15:28:46;2.60;99.90
2723;DHT22;1369;53.216;10.396;2023-12-07T15:31:12;2.60;99.90
2723;DHT22;1369;53.216;10.396;2023-12-07T15:33:37;2.60;99.90
2723;DHT22;1369;53.216;10.396;2023-12-07T15:36:04;2.60;99.90
2723;DHT22;1369;53.216;10.396;2023-12-07T15:38:30;2.60;99.90
2723;DHT22;1369;53.216;10.396;2023-12-07T15:40:57;2.60;99.90
2723;DHT22;1369;53.216;10.396;2023-12-07T15:43:27;2.60;99.90
2723;DHT22;1369;53.216;10.396;2023-12-07T15:45:53;2.60;99.90
2723;DHT22;1369;53.216;10.396;2023-12-07T15:48:19;2.60;99.90
2723;DHT22;1369;53.216;10.396;2023-12-07T15:50:46;2.70;99.90
2723;DHT22;1369;53.216;10.396;2023-12-07T15:53:12;2.60;99.90
2723;DHT22;1369;53.216;10.396;2023-12-07T15:55:38;2.60;99.90
2723;DHT22;1369;53.216;10.396;2023-12-07T15:58:03;2.60;99.90
2723;DHT22;1369;53.216;10.396;2023-12-07T16:00:31;2.60;99.90
2723;DHT22;1369;53.216;10.396;2023-12-07T16:02:56;2.60;99.90
2723;DHT22;1369;53.216;10.396;2023-12-07T16:05:22;2.60;99.90